createdAt,value
2024-05-09T00:04:13.701Z,6.68
2024-05-09T00:09:16.009Z,6.47
2024-05-09T00:14:18.293Z,9.35
2024-05-09T00:19:22.094Z,7.55
2024-05-09T00:24:24.525Z,6.38
2024-05-09T00:29:26.859Z,9.77
2024-05-09T00:34:29.428Z,9.15
2024-05-09T00:39:31.790Z,7.32
2024-05-09T00:44:34.075Z,7.03
2024-05-09T00:49:36.884Z,6.63
2024-05-09T00:54:39.227Z,6.85
2024-05-09T00:59:41.531Z,6.93
2024-05-09T01:04:44.004Z,7.45
2024-05-09T01:09:46.368Z,6.47
2024-05-09T01:14:48.627Z,7.90
2024-05-09T01:19:50.970Z,6.60
2024-05-09T01:24:53.558Z,9.30
2024-05-09T01:29:56.022Z,7.15
2024-05-09T01:34:58.319Z,6.57
2024-05-09T01:40:00.708Z,7.90
2024-05-09T01:45:02.971Z,7.10
2024-05-09T01:50:08.939Z,8.25
2024-05-09T01:55:13.047Z,7.00
2024-05-09T02:00:22.174Z,8.20
2024-05-09T02:05:31.905Z,6.63
2024-05-09T02:10:34.300Z,7.82
2024-05-09T02:15:36.790Z,7.95
2024-05-09T02:20:41.150Z,7.35
2024-05-09T02:25:43.860Z,8.38
2024-05-09T02:30:46.131Z,8.10
2024-05-09T02:35:48.402Z,8.02
2024-05-09T02:40:50.677Z,8.35
2024-05-09T02:45:52.936Z,7.85
2024-05-09T02:50:55.205Z,9.27
2024-05-09T02:55:58.103Z,10.88
2024-05-09T03:01:00.429Z,8.95
2024-05-09T03:06:03.166Z,7.85
2024-05-09T03:11:05.599Z,8.55
2024-05-09T03:16:07.991Z,8.82
2024-05-09T03:21:10.701Z,6.82
2024-05-09T03:26:18.186Z,6.38
2024-05-09T03:31:20.455Z,5.88
2024-05-09T03:36:22.716Z,6.20
2024-05-09T03:41:25.106Z,6.28
2024-05-09T03:46:27.397Z,5.93
2024-05-09T03:51:29.656Z,6.53
2024-05-09T03:56:31.986Z,8.60
2024-05-09T04:01:34.363Z,6.63
2024-05-09T04:06:36.659Z,6.78
2024-05-09T04:11:38.958Z,6.22
2024-05-09T04:16:41.339Z,6.90
2024-05-09T04:21:43.603Z,6.00
2024-05-09T04:26:45.873Z,6.97
2024-05-09T04:31:48.170Z,6.93
2024-05-09T04:36:50.452Z,10.18
2024-05-09T04:41:52.776Z,10.05
2024-05-09T04:46:55.047Z,9.10
2024-05-09T04:51:57.346Z,10.07
2024-05-09T04:56:59.595Z,12.32
2024-05-09T05:02:02.011Z,15.00
2024-05-09T05:07:04.440Z,15.55
2024-05-09T05:12:27.134Z,16.40
2024-05-09T05:17:29.839Z,17.75
2024-05-09T05:22:32.131Z,14.70
2024-05-09T05:27:34.379Z,15.30
2024-05-09T05:32:36.751Z,14.45
2024-05-09T05:37:39.209Z,15.85
2024-05-09T05:42:41.518Z,14.88
2024-05-09T05:47:43.995Z,13.55
2024-05-09T05:52:46.502Z,13.70
2024-05-09T05:57:48.810Z,13.15
2024-05-09T06:02:51.150Z,14.00
2024-05-09T06:07:53.512Z,12.48
2024-05-09T06:12:55.737Z,13.48
2024-05-09T06:17:58.141Z,14.55
2024-05-09T06:23:00.778Z,13.05
2024-05-09T06:28:03.353Z,13.65
2024-05-09T06:33:06.514Z,13.88
2024-05-09T06:38:09.585Z,15.85
2024-05-09T06:43:18.128Z,12.13
2024-05-09T06:48:22.666Z,13.18
2024-05-09T06:53:25.357Z,11.55
2024-05-09T06:58:27.660Z,10.75
2024-05-09T07:03:30.585Z,8.63
2024-05-09T07:08:33.076Z,8.75
2024-05-09T07:13:35.497Z,7.43
2024-05-09T07:18:38.282Z,6.28
2024-05-09T07:23:41.859Z,8.57
2024-05-09T07:28:45.348Z,7.50
2024-05-09T07:33:47.774Z,7.65
2024-05-09T07:38:50.203Z,7.95
2024-05-09T07:43:52.509Z,8.82
2024-05-09T07:50:35.414Z,7.90
2024-05-09T07:54:17.827Z,6.70
2024-05-09T07:59:20.197Z,8.40
2024-05-09T08:04:23.070Z,6.97
2024-05-09T08:09:27.420Z,5.50
2024-05-09T08:14:29.702Z,7.30
2024-05-09T08:19:32.060Z,5.80
2024-05-09T08:24:35.761Z,5.40
2024-05-09T08:29:38.032Z,5.90
2024-05-09T08:34:44.085Z,3.85
2024-05-09T08:39:46.440Z,7.45
2024-05-09T08:44:49.777Z,5.30
2024-05-09T08:49:58.241Z,5.88
2024-05-09T08:55:01.240Z,6.88
2024-05-09T09:00:09.941Z,5.55
2024-05-09T09:05:17.578Z,5.78
2024-05-09T09:10:29.298Z,5.50
2024-05-09T09:15:34.167Z,6.78
2024-05-09T09:20:37.207Z,4.03
2024-05-09T09:25:42.724Z,4.65
2024-05-09T09:30:45.994Z,4.03
2024-05-09T09:35:48.396Z,6.25
2024-05-09T09:40:51.469Z,4.25
2024-05-09T09:45:55.356Z,4.07
2024-05-09T09:50:58.459Z,4.22
2024-05-09T09:56:02.207Z,4.78
2024-05-09T10:01:04.917Z,4.88
2024-05-09T10:06:09.365Z,4.07
2024-05-09T10:11:12.106Z,3.95
2024-05-09T10:16:23.175Z,6.95
2024-05-09T10:21:27.554Z,6.45
2024-05-09T10:26:37.722Z,5.75
2024-05-09T10:31:42.632Z,6.07
2024-05-09T10:36:44.975Z,5.50
2024-05-09T10:41:47.391Z,4.55
2024-05-09T10:46:50.469Z,4.63
2024-05-09T10:51:53.174Z,4.72
2024-05-09T10:56:57.741Z,6.10
2024-05-09T11:02:03.384Z,4.53
2024-05-09T11:07:09.356Z,5.38
2024-05-09T11:12:11.846Z,6.35
2024-05-09T11:17:14.203Z,5.00
2024-05-09T11:22:16.722Z,5.78
2024-05-09T11:27:22.085Z,5.93
2024-05-09T11:32:30.853Z,6.00
2024-05-09T11:37:36.060Z,5.05
2024-05-09T11:42:39.591Z,6.55
2024-05-09T11:47:42.130Z,6.68
2024-05-09T11:52:44.802Z,5.03
2024-05-09T11:57:47.139Z,5.75
2024-05-09T12:02:49.425Z,4.80
2024-05-09T12:07:52.289Z,5.43
2024-05-09T12:12:54.599Z,5.60
2024-05-09T12:17:59.085Z,6.25
2024-05-09T12:23:03.845Z,5.50
2024-05-09T12:28:06.578Z,5.55
2024-05-09T12:33:12.107Z,5.85
2024-05-09T12:38:15.724Z,6.97
2024-05-09T12:43:18.128Z,5.55
2024-05-09T12:48:20.623Z,6.70
2024-05-09T12:53:22.923Z,4.93
2024-05-09T12:58:25.353Z,4.03
2024-05-09T13:03:27.633Z,4.95
2024-05-09T13:08:30.046Z,5.38
2024-05-09T13:13:32.303Z,5.28
2024-05-09T13:18:36.439Z,5.35
2024-05-09T13:23:38.740Z,4.95
2024-05-09T13:28:41.255Z,4.15
2024-05-09T13:33:43.613Z,3.67
2024-05-09T13:38:46.143Z,3.55
2024-05-09T13:43:48.399Z,5.10
2024-05-09T13:48:50.716Z,5.97
2024-05-09T13:53:53.024Z,3.05
2024-05-09T13:58:55.347Z,3.03
2024-05-09T14:03:57.768Z,4.65
2024-05-09T14:09:00.147Z,4.47
2024-05-09T14:14:02.976Z,3.35
2024-05-09T14:19:05.689Z,5.55
2024-05-09T14:24:07.968Z,3.20
2024-05-09T14:29:10.219Z,3.72
2024-05-09T14:34:12.739Z,4.43
2024-05-09T14:39:15.148Z,3.67
2024-05-09T14:44:17.469Z,3.30
2024-05-09T14:49:19.870Z,3.40
2024-05-09T14:54:22.225Z,3.78
2024-05-09T14:59:24.461Z,4.93
2024-05-09T15:04:28.601Z,2.65
2024-05-09T15:09:36.276Z,2.67
2024-05-09T15:14:38.769Z,3.60
2024-05-09T15:19:41.357Z,2.65
2024-05-09T15:24:45.285Z,2.85
2024-05-09T15:29:47.517Z,3.15
2024-05-09T15:34:49.795Z,2.33
2024-05-09T15:39:52.307Z,4.50
2024-05-09T15:44:54.744Z,3.10
2024-05-09T15:49:57.128Z,3.00
2024-05-09T15:54:59.642Z,2.30
2024-05-09T16:00:01.955Z,2.83
2024-05-09T16:05:04.387Z,7.13
2024-05-09T16:10:07.238Z,5.75
2024-05-09T16:15:09.582Z,6.78
2024-05-09T16:20:15.338Z,5.45
2024-05-09T16:25:24.071Z,4.07
2024-05-09T16:30:33.734Z,3.53
2024-05-09T16:35:39.294Z,11.98
2024-05-09T16:40:41.819Z,4.85
2024-05-09T16:45:44.858Z,9.73
2024-05-09T16:50:47.427Z,4.45
2024-05-09T16:55:49.777Z,2.35
2024-05-09T17:00:52.383Z,3.63
2024-05-09T17:05:54.918Z,2.10
2024-05-09T17:10:57.452Z,3.08
2024-05-09T17:16:00.129Z,7.30
2024-05-09T17:21:02.486Z,5.95
2024-05-09T17:26:04.896Z,3.42
2024-05-09T17:31:07.719Z,3.95
2024-05-09T17:36:10.335Z,5.45
2024-05-09T17:41:12.597Z,3.53
2024-05-09T17:46:14.901Z,6.70
2024-05-09T17:51:17.207Z,6.45
2024-05-09T17:56:19.616Z,3.42
2024-05-09T18:01:23.601Z,3.22
2024-05-09T18:06:26.062Z,4.32
2024-05-09T18:11:28.395Z,5.43
2024-05-09T18:16:30.744Z,7.20
2024-05-09T18:21:33.237Z,11.10
2024-05-09T18:26:35.621Z,6.47
2024-05-09T18:31:37.958Z,7.65
2024-05-09T18:36:43.202Z,8.45
2024-05-09T18:41:45.501Z,4.72
2024-05-09T18:46:47.844Z,4.80
2024-05-09T18:51:50.170Z,4.53
2024-05-09T18:56:52.462Z,5.35
2024-05-09T19:01:55.055Z,8.70
2024-05-09T19:06:57.520Z,5.72
2024-05-09T19:12:03.254Z,8.35
2024-05-09T19:17:05.567Z,5.03
2024-05-09T19:22:08.133Z,8.63
2024-05-09T19:27:10.862Z,7.55
2024-05-09T19:32:13.190Z,6.30
2024-05-09T19:37:15.656Z,7.07
2024-05-09T19:42:18.700Z,12.80
2024-05-09T19:47:21.110Z,20.63
2024-05-09T19:52:23.514Z,13.98
2024-05-09T19:57:25.770Z,12.73
2024-05-09T20:02:28.136Z,11.45
2024-05-09T20:07:32.625Z,11.68
2024-05-09T20:12:35.426Z,9.48
2024-05-09T20:17:38.578Z,8.10
2024-05-09T20:22:40.852Z,11.05
2024-05-09T20:27:43.174Z,11.43
2024-05-09T20:32:45.562Z,14.23
2024-05-09T20:37:47.851Z,19.08
2024-05-09T20:42:51.161Z,19.20
2024-05-09T20:47:53.576Z,22.02
2024-05-09T20:52:55.876Z,23.33
2024-05-09T20:57:58.526Z,26.77
2024-05-09T21:03:00.932Z,25.38
2024-05-09T21:08:03.237Z,23.80
2024-05-09T21:13:06.813Z,22.63
2024-05-09T21:18:09.808Z,15.82
2024-05-09T21:23:12.115Z,12.55
2024-05-09T21:28:15.148Z,12.02
2024-05-09T21:33:17.590Z,13.50
2024-05-09T21:38:19.855Z,14.23
2024-05-09T21:43:22.187Z,11.30
2024-05-09T21:48:24.585Z,12.93
2024-05-09T21:53:26.853Z,11.57
2024-05-09T21:58:29.189Z,12.95
2024-05-09T22:03:31.863Z,13.25
2024-05-09T22:08:34.229Z,11.80
2024-05-09T22:13:36.560Z,12.45
2024-05-09T22:18:39.099Z,13.45
2024-05-09T22:23:41.419Z,10.73
2024-05-09T22:28:43.704Z,12.32
2024-05-09T22:33:48.119Z,11.70
2024-05-09T22:38:50.760Z,11.68
2024-05-09T22:43:53.010Z,14.82
2024-05-09T22:48:55.396Z,12.90
2024-05-09T22:53:57.750Z,13.57
2024-05-09T22:59:01.841Z,15.43
2024-05-09T23:04:04.321Z,10.90
2024-05-09T23:09:08.307Z,12.68
2024-05-09T23:14:12.343Z,15.60
2024-05-09T23:19:14.666Z,13.00
2024-05-09T23:24:16.930Z,12.05
2024-05-09T23:29:19.195Z,12.73
2024-05-09T23:34:21.754Z,14.68
2024-05-09T23:39:24.162Z,14.75
2024-05-09T23:44:26.424Z,13.80
2024-05-09T23:49:28.745Z,15.93
2024-05-09T23:54:31.013Z,15.15
2024-05-09T23:59:33.335Z,15.32
